Time;durP1;ratioP1;P1;durP2;ratioP2;P2;SDS_P1;SDS_P2;PMS_P1;PMS_P2;Temp;Humidity;BMP_temperature;BMP_pressure;BME280_temperature;BME280_humidity;BME280_pressure;Samples;Min_cycle;Max_cycle;Signal;HPM_P1;HPM_P2
2022/03/01 00:01:01;;;;;;;73.75;42.17;;;;;;;;;;5114894;28;20467;-67
2022/03/01 00:03:27;;;;;;;78.65;42.53;;;;;;;;;;5096348;28;20380;-66
2022/03/01 00:05:53;;;;;;;80.07;44.20;;;;;;;;;;5114573;28;20028;-65
2022/03/01 00:08:19;;;;;;;85.45;45.47;;;;;;;;;;5114526;28;20028;-66
2022/03/01 00:10:45;;;;;;;90.18;46.83;;;;;;;;;;5114477;28;20122;-65
2022/03/01 00:13:11;;;;;;;99.03;49.92;;;;;;;;;;5114409;28;20030;-65
2022/03/01 00:15:38;;;;;;;91.00;48.22;;;;;;;;;;5114261;28;20126;-65
2022/03/01 00:18:04;;;;;;;81.15;44.45;;;;;;;;;;5114262;28;20024;-64
2022/03/01 00:20:30;;;;;;;82.45;44.33;;;;;;;;;;5114286;28;20032;-64
2022/03/01 00:22:56;;;;;;;85.53;44.85;;;;;;;;;;5114547;28;20028;-64
2022/03/01 00:25:23;;;;;;;83.13;44.35;;;;;;;;;;5114260;28;20115;-65
2022/03/01 00:27:49;;;;;;;97.85;48.20;;;;;;;;;;5113809;28;20476;-64
2022/03/01 00:30:15;;;;;;;94.93;48.72;;;;;;;;;;5095910;28;20038;-64
2022/03/01 00:32:42;;;;;;;91.75;49.00;;;;;;;;;;5114071;28;20042;-64
2022/03/01 00:35:08;;;;;;;86.68;46.83;;;;;;;;;;5114035;28;20031;-65
2022/03/01 00:37:34;;;;;;;91.05;47.50;;;;;;;;;;5095080;28;20023;-66
2022/03/01 00:40:00;;;;;;;87.05;46.20;;;;;;;;;;5113877;28;20074;-66
2022/03/01 00:42:26;;;;;;;96.75;50.75;;;;;;;;;;5114128;28;20084;-67
2022/03/01 00:45:30;;;;;;;92.47;49.13;;;;;;;;;;5095183;28;20495;-66
2022/03/01 00:47:56;;;;;;;108.00;57.08;;;;;;;;;;5095478;28;20050;-66
2022/03/01 00:50:23;;;;;;;96.50;53.05;;;;;;;;;;5113816;28;20114;-67
2022/03/01 00:52:49;;;;;;;99.55;51.22;;;;;;;;;;5113759;28;20060;-66
2022/03/01 00:55:15;;;;;;;88.93;48.33;;;;;;;;;;5113732;28;20023;-64
2022/03/01 00:57:41;;;;;;;96.47;48.92;;;;;;;;;;5095407;28;20030;-66
2022/03/01 01:00:08;;;;;;;103.40;56.05;;;;;;;;;;5113668;28;20042;-66
2022/03/01 01:02:34;;;;;;;95.75;52.30;;;;;;;;;;5113678;28;20028;-66
2022/03/01 01:05:00;;;;;;;96.68;49.72;;;;;;;;;;5113653;28;20035;-66
2022/03/01 01:07:26;;;;;;;98.97;51.05;;;;;;;;;;5095247;28;20055;-68
2022/03/01 01:09:53;;;;;;;103.28;51.30;;;;;;;;;;5113585;28;20106;-67
2022/03/01 01:12:19;;;;;;;94.03;50.00;;;;;;;;;;5113553;28;20144;-68
2022/03/01 01:14:45;;;;;;;93.43;49.00;;;;;;;;;;5113196;28;20069;-66
2022/03/01 01:17:11;;;;;;;90.57;48.97;;;;;;;;;;5113513;28;20038;-66
2022/03/01 01:19:39;;;;;;;88.25;47.05;;;;;;;;;;5113284;28;20039;-67
2022/03/01 01:24:50;;;;;;;93.82;47.60;;;;;;;;;;5113461;28;20392;-66
2022/03/01 01:27:16;;;;;;;89.68;47.85;;;;;;;;;;5113417;28;20073;-64
2022/03/01 01:29:42;;;;;;;84.43;45.20;;;;;;;;;;5113364;28;20036;-67
2022/03/01 01:32:09;;;;;;;83.63;44.55;;;;;;;;;;5113317;28;20028;-66
2022/03/01 01:34:35;;;;;;;82.25;42.42;;;;;;;;;;5113005;28;20023;-66
2022/03/01 01:37:01;;;;;;;79.55;41.47;;;;;;;;;;5094954;28;20024;-66
2022/03/01 01:39:27;;;;;;;74.68;40.33;;;;;;;;;;5113195;28;20075;-67
2022/03/01 01:41:54;;;;;;;73.18;39.63;;;;;;;;;;5094664;28;20032;-65
2022/03/01 01:44:20;;;;;;;75.68;41.38;;;;;;;;;;5113220;28;20084;-65
2022/03/01 01:46:46;;;;;;;85.55;45.20;;;;;;;;;;5113229;28;20022;-65
2022/03/01 01:49:12;;;;;;;106.53;59.55;;;;;;;;;;5097949;28;20460;-65
2022/03/01 01:51:39;;;;;;;100.40;55.03;;;;;;;;;;5117214;28;20073;-65
2022/03/01 01:54:06;;;;;;;79.97;45.80;;;;;;;;;;5117152;28;20020;-66
2022/03/01 01:56:32;;;;;;;78.50;43.17;;;;;;;;;;5117115;28;20118;-67
2022/03/01 01:58:58;;;;;;;72.78;40.80;;;;;;;;;;5098631;28;20578;-66
2022/03/01 02:01:24;;;;;;;78.70;42.10;;;;;;;;;;5098780;28;20418;-65
2022/03/01 02:03:50;;;;;;;78.45;43.33;;;;;;;;;;5116673;28;20042;-66
2022/03/01 02:06:17;;;;;;;77.53;42.60;;;;;;;;;;5116924;28;20019;-66
2022/03/01 02:08:43;;;;;;;72.47;40.10;;;;;;;;;;5116839;28;20080;-65
2022/03/01 02:11:09;;;;;;;77.82;40.83;;;;;;;;;;5116878;28;20024;-65
2022/03/01 02:13:35;;;;;;;73.07;40.58;;;;;;;;;;5098451;28;20495;-66
2022/03/01 02:16:02;;;;;;;65.43;37.58;;;;;;;;;;5116234;28;20127;-66
2022/03/01 02:18:28;;;;;;;63.88;36.85;;;;;;;;;;5116345;28;20169;-65
2022/03/01 02:20:54;;;;;;;62.72;35.10;;;;;;;;;;5116643;28;20027;-64
2022/03/01 02:23:20;;;;;;;59.92;33.17;;;;;;;;;;5116334;28;20478;-65
2022/03/01 02:25:47;;;;;;;60.45;32.35;;;;;;;;;;5098236;28;20031;-65
2022/03/01 02:28:13;;;;;;;55.55;32.33;;;;;;;;;;5116462;28;20103;-65
2022/03/01 02:30:39;;;;;;;54.17;30.63;;;;;;;;;;5098166;28;20122;-67
2022/03/01 02:33:05;;;;;;;54.58;32.40;;;;;;;;;;5116433;28;20027;-65
2022/03/01 02:35:32;;;;;;;58.65;33.08;;;;;;;;;;5116401;28;20027;-67
2022/03/01 02:37:58;;;;;;;52.58;30.50;;;;;;;;;;5116344;28;20031;-67
2022/03/01 02:40:24;;;;;;;48.80;29.70;;;;;;;;;;5116229;28;20028;-67
2022/03/01 02:42:50;;;;;;;48.90;29.55;;;;;;;;;;5116189;28;20483;-67
2022/03/01 02:45:18;;;;;;;54.15;30.40;;;;;;;;;;5116165;28;20027;-66
2022/03/01 02:47:44;;;;;;;48.78;28.88;;;;;;;;;;5116108;28;20023;-65
2022/03/01 02:50:11;;;;;;;47.45;27.40;;;;;;;;;;5097917;28;20118;-66
2022/03/01 02:52:38;;;;;;;52.40;27.20;;;;;;;;;;5097725;28;20028;-67
2022/03/01 02:55:05;;;;;;;41.20;24.88;;;;;;;;;;5116017;28;20024;-67
2022/03/01 02:57:31;;;;;;;40.83;23.35;;;;;;;;;;5115954;28;20565;-67
2022/03/01 02:59:57;;;;;;;41.15;23.13;;;;;;;;;;5115209;28;20038;-64
2022/03/01 03:02:24;;;;;;;36.67;21.50;;;;;;;;;;5115849;28;20478;-65
2022/03/01 03:04:50;;;;;;;44.50;25.13;;;;;;;;;;5115812;28;20047;-66
2022/03/01 03:07:16;;;;;;;46.55;27.17;;;;;;;;;;5115751;28;20070;-66
2022/03/01 03:09:42;;;;;;;65.75;36.42;;;;;;;;;;5115650;28;20032;-65
2022/03/01 03:12:09;;;;;;;48.65;29.10;;;;;;;;;;5097389;28;20055;-66
2022/03/01 03:14:36;;;;;;;45.97;26.73;;;;;;;;;;5097287;28;20533;-65
2022/03/01 03:17:02;;;;;;;44.97;24.85;;;;;;;;;;5115653;28;20043;-66
2022/03/01 03:19:28;;;;;;;40.80;25.42;;;;;;;;;;5115086;28;20404;-65
2022/03/01 03:21:54;;;;;;;47.55;28.38;;;;;;;;;;5097224;28;20043;-66
2022/03/01 03:24:21;;;;;;;44.28;25.80;;;;;;;;;;5115463;28;20487;-66
2022/03/01 03:26:47;;;;;;;43.70;25.35;;;;;;;;;;5115384;28;20368;-64
2022/03/01 03:29:13;;;;;;;46.40;26.27;;;;;;;;;;5115356;28;20474;-64
2022/03/01 03:31:41;;;;;;;40.22;25.27;;;;;;;;;;5115343;28;20031;-64
2022/03/01 03:34:08;;;;;;;43.63;26.23;;;;;;;;;;5115264;28;20085;-64
2022/03/01 03:36:35;;;;;;;41.22;24.33;;;;;;;;;;5096871;28;20080;-63
2022/03/01 03:39:03;;;;;;;45.28;24.73;;;;;;;;;;5115308;28;20035;-66
2022/03/01 03:41:29;;;;;;;40.67;24.45;;;;;;;;;;5115159;28;20024;-64
2022/03/01 03:43:55;;;;;;;44.45;26.40;;;;;;;;;;5096734;28;20020;-64
2022/03/01 03:46:21;;;;;;;54.63;31.13;;;;;;;;;;5115033;28;20529;-64
2022/03/01 03:48:48;;;;;;;62.05;34.55;;;;;;;;;;5114937;28;20472;-64
2022/03/01 03:51:14;;;;;;;101.82;52.65;;;;;;;;;;5115126;28;20114;-64
2022/03/01 03:53:41;;;;;;;77.40;43.63;;;;;;;;;;5114508;28;20470;-64
2022/03/01 03:56:07;;;;;;;72.05;41.03;;;;;;;;;;5114807;28;20111;-64
2022/03/01 03:58:33;;;;;;;71.13;37.92;;;;;;;;;;5114638;28;20028;-64
2022/03/01 04:00:59;;;;;;;71.32;42.50;;;;;;;;;;5096409;28;20023;-64
2022/03/01 04:03:26;;;;;;;55.20;34.40;;;;;;;;;;5114323;28;20028;-64
2022/03/01 04:05:53;;;;;;;55.33;31.80;;;;;;;;;;5114572;28;20039;-64
2022/03/01 04:08:19;;;;;;;50.20;29.30;;;;;;;;;;5096299;28;20472;-63
2022/03/01 04:10:45;;;;;;;49.35;29.52;;;;;;;;;;5114512;28;20024;-63
2022/03/01 04:13:12;;;;;;;50.35;29.85;;;;;;;;;;5095483;28;20464;-64
2022/03/01 04:15:38;;;;;;;55.53;30.15;;;;;;;;;;5095931;28;20142;-64
2022/03/01 04:18:04;;;;;;;50.45;29.90;;;;;;;;;;5114102;28;20449;-63
2022/03/01 04:20:31;;;;;;;51.15;30.35;;;;;;;;;;5114302;28;20080;-64
2022/03/01 04:22:57;;;;;;;50.97;30.48;;;;;;;;;;5095795;28;20110;-63
2022/03/01 04:25:24;;;;;;;53.10;29.48;;;;;;;;;;5114213;28;20469;-66
2022/03/01 04:27:50;;;;;;;48.42;30.33;;;;;;;;;;5114146;28;20080;-64
2022/03/01 04:30:17;;;;;;;52.15;31.20;;;;;;;;;;5114364;28;20024;-64
2022/03/01 04:32:45;;;;;;;53.30;30.65;;;;;;;;;;5095862;28;20120;-64
2022/03/01 04:35:11;;;;;;;47.75;28.63;;;;;;;;;;5114093;28;20027;-64
2022/03/01 04:37:38;;;;;;;46.28;28.17;;;;;;;;;;5114033;28;20027;-64
2022/03/01 04:40:08;;;;;;;45.05;26.83;;;;;;;;;;5113881;28;20028;-64
2022/03/01 04:42:35;;;;;;;45.15;26.58;;;;;;;;;;5113931;28;20016;-64
2022/03/01 04:45:01;;;;;;;39.88;25.05;;;;;;;;;;5113829;28;20103;-63
2022/03/01 04:47:27;;;;;;;42.30;23.88;;;;;;;;;;5113473;28;20500;-63
2022/03/01 04:49:54;;;;;;;35.03;22.83;;;;;;;;;;5095404;28;20361;-64
2022/03/01 04:52:20;;;;;;;35.55;21.30;;;;;;;;;;5113735;28;20110;-64
2022/03/01 04:54:46;;;;;;;37.17;22.83;;;;;;;;;;5113674;28;20031;-63
2022/03/01 04:57:12;;;;;;;36.97;22.40;;;;;;;;;;5113860;28;20034;-64
2022/03/01 04:59:38;;;;;;;35.72;22.38;;;;;;;;;;5113450;28;20042;-64
2022/03/01 05:02:05;;;;;;;39.78;22.70;;;;;;;;;;5113647;28;20063;-64
2022/03/01 05:04:31;;;;;;;36.50;22.40;;;;;;;;;;5095029;28;20024;-64
2022/03/01 05:06:57;;;;;;;51.13;28.33;;;;;;;;;;5113585;28;20031;-64
2022/03/01 05:09:24;;;;;;;59.58;32.80;;;;;;;;;;5094931;28;20023;-64
2022/03/01 05:11:51;;;;;;;63.08;39.97;;;;;;;;;;5113576;28;20106;-64
2022/03/01 05:14:17;;;;;;;93.50;56.97;;;;;;;;;;5110979;28;20068;-63
2022/03/01 05:16:44;;;;;;;100.32;61.72;;;;;;;;;;5095196;28;20031;-64
2022/03/01 05:19:10;;;;;;;109.30;70.93;;;;;;;;;;5113400;28;20092;-63
2022/03/01 05:21:36;;;;;;;101.00;62.72;;;;;;;;;;5113669;28;20024;-63
2022/03/01 05:24:03;;;;;;;85.75;53.65;;;;;;;;;;5098064;28;20028;-63
2022/03/01 05:26:29;;;;;;;64.82;41.20;;;;;;;;;;5117950;28;20024;-63
2022/03/01 05:28:56;;;;;;;42.55;24.35;;;;;;;;;;5099355;28;20027;-63
2022/03/01 05:31:22;;;;;;;40.35;22.85;;;;;;;;;;5117634;28;20031;-64
2022/03/01 05:33:48;;;;;;;35.45;20.98;;;;;;;;;;5117797;28;20031;-64
2022/03/01 05:36:15;;;;;;;34.42;22.52;;;;;;;;;;5117504;28;20456;-65
2022/03/01 05:38:42;;;;;;;33.72;21.02;;;;;;;;;;5099001;28;20031;-64
2022/03/01 05:41:08;;;;;;;32.00;19.50;;;;;;;;;;5099067;28;20027;-65
2022/03/01 05:43:34;;;;;;;34.80;19.45;;;;;;;;;;5117379;28;20031;-65
2022/03/01 05:46:01;;;;;;;35.25;20.42;;;;;;;;;;5099055;28;20031;-64
2022/03/01 05:48:27;;;;;;;30.05;19.50;;;;;;;;;;5098810;28;20024;-63
2022/03/01 05:50:53;;;;;;;27.05;16.52;;;;;;;;;;5117213;28;20023;-63
2022/03/01 05:53:20;;;;;;;23.38;15.30;;;;;;;;;;5117265;28;20028;-63
2022/03/01 05:55:46;;;;;;;21.38;12.70;;;;;;;;;;5117165;28;20059;-64
2022/03/01 05:58:12;;;;;;;24.92;14.63;;;;;;;;;;5117108;28;20027;-64
2022/03/01 06:00:39;;;;;;;17.05;12.70;;;;;;;;;;5116914;28;20031;-64
2022/03/01 06:03:05;;;;;;;22.33;13.02;;;;;;;;;;5098717;28;20526;-64
2022/03/01 06:05:32;;;;;;;21.88;13.25;;;;;;;;;;5098564;28;20035;-64
2022/03/01 06:07:58;;;;;;;23.63;14.77;;;;;;;;;;5116818;28;20068;-64
2022/03/01 06:10:27;;;;;;;23.30;15.00;;;;;;;;;;5098555;28;20529;-64
2022/03/01 06:12:53;;;;;;;26.35;16.65;;;;;;;;;;5116882;28;20028;-64
2022/03/01 06:15:19;;;;;;;25.90;15.43;;;;;;;;;;5116765;28;20136;-65
2022/03/01 06:17:45;;;;;;;23.50;15.25;;;;;;;;;;5116704;28;20081;-64
2022/03/01 06:20:12;;;;;;;27.83;18.15;;;;;;;;;;5116596;28;20036;-65
2022/03/01 06:22:38;;;;;;;31.65;18.30;;;;;;;;;;5116549;28;20102;-64
2022/03/01 06:25:05;;;;;;;28.90;17.13;;;;;;;;;;5116544;28;20448;-65
2022/03/01 06:27:31;;;;;;;38.42;19.63;;;;;;;;;;5098063;28;20396;-65
2022/03/01 06:29:57;;;;;;;48.15;23.52;;;;;;;;;;5116410;28;20166;-64
2022/03/01 06:32:23;;;;;;;49.45;25.92;;;;;;;;;;5098117;28;20027;-65
2022/03/01 06:34:50;;;;;;;44.45;23.45;;;;;;;;;;5114879;28;20456;-64
2022/03/01 06:37:16;;;;;;;39.28;20.67;;;;;;;;;;5116017;28;20016;-64
2022/03/01 06:39:43;;;;;;;182.98;77.60;;;;;;;;;;5097519;28;20040;-63
2022/03/01 06:42:10;;;;;;;70.47;40.80;;;;;;;;;;5116114;28;20046;-64
2022/03/01 06:44:36;;;;;;;57.28;33.60;;;;;;;;;;5115765;28;20026;-64
2022/03/01 06:47:03;;;;;;;64.72;35.97;;;;;;;;;;5116056;28;20031;-64
2022/03/01 06:49:29;;;;;;;65.18;37.28;;;;;;;;;;5097764;28;20217;-63
2022/03/01 06:51:56;;;;;;;58.85;35.38;;;;;;;;;;5115843;28;20031;-64
2022/03/01 06:54:22;;;;;;;53.45;31.67;;;;;;;;;;5115901;28;20027;-64
2022/03/01 06:56:48;;;;;;;66.28;38.40;;;;;;;;;;5097457;28;20376;-64
2022/03/01 06:59:15;;;;;;;75.60;44.00;;;;;;;;;;5114863;28;20109;-64
2022/03/01 07:01:41;;;;;;;59.63;35.60;;;;;;;;;;5111717;28;20024;-65
2022/03/01 07:04:07;;;;;;;54.28;34.67;;;;;;;;;;5106086;28;20019;-64
2022/03/01 07:06:34;;;;;;;61.03;34.03;;;;;;;;;;5110180;28;20035;-64
2022/03/01 07:09:00;;;;;;;44.55;27.90;;;;;;;;;;5115706;28;20028;-65
2022/03/01 07:11:26;;;;;;;36.10;23.40;;;;;;;;;;5115459;28;20039;-66
2022/03/01 07:13:52;;;;;;;41.60;26.08;;;;;;;;;;5115149;28;20036;-64
2022/03/01 07:16:19;;;;;;;48.60;28.15;;;;;;;;;;5115579;28;20026;-64
2022/03/01 07:18:46;;;;;;;37.08;20.50;;;;;;;;;;5115404;28;20020;-64
2022/03/01 07:21:13;;;;;;;17.42;11.70;;;;;;;;;;5115310;28;20026;-64
2022/03/01 07:23:40;;;;;;;24.45;15.38;;;;;;;;;;5115358;28;20111;-63
2022/03/01 07:26:07;;;;;;;19.30;13.18;;;;;;;;;;5115382;28;20480;-65
2022/03/01 07:28:34;;;;;;;17.23;12.15;;;;;;;;;;5114986;28;20353;-64
2022/03/01 07:31:00;;;;;;;24.95;12.98;;;;;;;;;;5115074;28;20023;-64
2022/03/01 07:33:26;;;;;;;18.95;11.75;;;;;;;;;;5096808;28;20483;-64
2022/03/01 07:35:53;;;;;;;24.48;14.50;;;;;;;;;;5115189;28;20460;-64
2022/03/01 07:38:19;;;;;;;18.42;12.27;;;;;;;;;;5115084;28;20102;-64
2022/03/01 07:40:45;;;;;;;14.77;10.25;;;;;;;;;;5114981;28;20028;-63
2022/03/01 07:43:11;;;;;;;21.80;13.07;;;;;;;;;;5115338;28;20028;-66
2022/03/01 07:45:37;;;;;;;22.92;13.35;;;;;;;;;;5115100;28;20011;-63
2022/03/01 07:48:04;;;;;;;20.00;12.68;;;;;;;;;;5092256;28;20368;-63
2022/03/01 07:50:31;;;;;;;17.30;10.57;;;;;;;;;;5076242;28;20135;-64
2022/03/01 07:52:57;;;;;;;21.98;11.80;;;;;;;;;;5094121;28;20479;-64
2022/03/01 07:55:24;;;;;;;44.08;22.25;;;;;;;;;;5074668;28;20384;-63
2022/03/01 07:57:50;;;;;;;24.40;13.70;;;;;;;;;;5094311;28;20051;-65
2022/03/01 08:00:17;;;;;;;24.45;12.40;;;;;;;;;;5094200;28;20036;-63
2022/03/01 08:02:43;;;;;;;21.77;12.50;;;;;;;;;;5094322;28;20473;-64
2022/03/01 08:05:10;;;;;;;21.33;12.82;;;;;;;;;;5094187;28;20032;-63
2022/03/01 08:07:36;;;;;;;17.67;11.82;;;;;;;;;;5093969;28;20031;-64
2022/03/01 08:10:03;;;;;;;37.72;17.65;;;;;;;;;;5075654;28;20038;-63
2022/03/01 08:12:29;;;;;;;27.90;15.93;;;;;;;;;;5094041;28;20028;-64
2022/03/01 08:14:56;;;;;;;29.10;17.63;;;;;;;;;;5093680;28;20101;-63
2022/03/01 08:17:22;;;;;;;35.60;19.20;;;;;;;;;;5075712;28;20207;-64
2022/03/01 08:19:48;;;;;;;40.67;21.75;;;;;;;;;;5093817;28;20043;-63
2022/03/01 08:22:15;;;;;;;28.35;18.20;;;;;;;;;;5093803;28;20055;-63
2022/03/01 08:24:41;;;;;;;22.52;14.05;;;;;;;;;;5075659;28;20032;-63
2022/03/01 08:27:08;;;;;;;34.38;17.00;;;;;;;;;;5093799;28;20036;-63
2022/03/01 08:29:34;;;;;;;25.25;14.95;;;;;;;;;;5093774;28;20035;-63
2022/03/01 08:32:01;;;;;;;24.98;15.55;;;;;;;;;;5093797;28;20024;-63
2022/03/01 08:34:27;;;;;;;29.23;17.02;;;;;;;;;;5093687;28;20536;-63
2022/03/01 08:36:53;;;;;;;29.52;17.88;;;;;;;;;;5075277;28;20427;-63
2022/03/01 08:39:19;;;;;;;25.27;16.73;;;;;;;;;;5093410;28;20042;-63
2022/03/01 08:41:45;;;;;;;25.33;16.23;;;;;;;;;;5075250;28;20035;-63
2022/03/01 08:44:12;;;;;;;30.02;15.27;;;;;;;;;;5075267;28;20483;-63
2022/03/01 08:46:38;;;;;;;23.77;15.70;;;;;;;;;;5093430;28;20410;-63
2022/03/01 08:49:04;;;;;;;31.13;19.98;;;;;;;;;;5093518;28;20123;-63
2022/03/01 08:51:31;;;;;;;25.23;17.58;;;;;;;;;;5093363;28;20093;-63
2022/03/01 08:53:57;;;;;;;26.92;18.50;;;;;;;;;;5093275;28;20042;-63
2022/03/01 08:56:23;;;;;;;67.30;34.40;;;;;;;;;;5093223;28;20380;-63
2022/03/01 08:58:49;;;;;;;33.05;21.92;;;;;;;;;;5092610;28;20066;-63
2022/03/01 09:01:15;;;;;;;49.75;30.05;;;;;;;;;;5092844;28;20457;-63
2022/03/01 09:03:42;;;;;;;56.05;31.33;;;;;;;;;;5093506;28;20111;-64
2022/03/01 09:06:08;;;;;;;22.13;15.20;;;;;;;;;;5093172;28;20499;-64
2022/03/01 09:08:40;;;;;;;58.55;34.78;;;;;;;;;;5093043;28;20039;-64
2022/03/01 09:11:06;;;;;;;82.57;46.97;;;;;;;;;;5075345;28;20397;-63
2022/03/01 09:13:33;;;;;;;43.13;25.67;;;;;;;;;;5075094;28;20043;-63
2022/03/01 09:15:59;;;;;;;73.78;43.50;;;;;;;;;;5092595;28;20132;-63
2022/03/01 09:18:25;;;;;;;31.15;20.27;;;;;;;;;;5092738;28;20028;-63
2022/03/01 09:20:51;;;;;;;34.50;20.70;;;;;;;;;;5092927;28;20565;-64
2022/03/01 09:23:17;;;;;;;33.75;20.67;;;;;;;;;;5093064;28;20020;-64
2022/03/01 09:25:44;;;;;;;39.58;19.85;;;;;;;;;;5092964;28;20067;-63
2022/03/01 09:28:10;;;;;;;37.40;23.10;;;;;;;;;;5092948;28;20126;-63
2022/03/01 09:30:36;;;;;;;30.00;20.08;;;;;;;;;;5092944;28;20032;-64
2022/03/01 09:33:02;;;;;;;34.35;22.42;;;;;;;;;;5092952;28;20075;-64
2022/03/01 09:35:29;;;;;;;33.50;20.38;;;;;;;;;;5092576;28;20435;-64
2022/03/01 09:37:55;;;;;;;28.88;18.55;;;;;;;;;;5074705;28;20524;-64
2022/03/01 09:40:21;;;;;;;29.40;18.02;;;;;;;;;;5092814;28;20036;-64
2022/03/01 09:42:47;;;;;;;33.17;19.65;;;;;;;;;;5092840;28;20020;-64
2022/03/01 09:45:14;;;;;;;27.80;19.48;;;;;;;;;;5092545;28;20478;-64
2022/03/01 09:47:41;;;;;;;29.27;18.63;;;;;;;;;;5092690;28;20028;-63
2022/03/01 09:50:11;;;;;;;25.25;16.85;;;;;;;;;;5092624;28;20030;-64
2022/03/01 09:52:37;;;;;;;30.17;18.38;;;;;;;;;;5092920;28;20035;-64
2022/03/01 09:55:04;;;;;;;66.60;40.88;;;;;;;;;;5092764;28;20034;-64
2022/03/01 09:57:30;;;;;;;28.77;18.73;;;;;;;;;;5092289;28;20469;-64
2022/03/01 09:59:57;;;;;;;28.48;17.77;;;;;;;;;;5092279;28;20435;-63
2022/03/01 10:02:33;;;;;;;24.15;16.23;;;;;;;;;;5092289;28;20473;-64
2022/03/01 10:05:01;;;;;;;26.42;16.90;;;;;;;;;;5092451;28;20042;-63
2022/03/01 10:07:28;;;;;;;39.22;26.25;;;;;;;;;;5092457;28;20086;-64
2022/03/01 10:09:56;;;;;;;35.97;22.00;;;;;;;;;;5094627;28;20403;-63
2022/03/01 10:12:29;;;;;;;36.17;21.63;;;;;;;;;;5096283;28;20115;-64
2022/03/01 10:15:02;;;;;;;48.92;30.05;;;;;;;;;;5095977;28;20048;-63
2022/03/01 10:17:39;;;;;;;34.92;22.02;;;;;;;;;;5078136;28;20446;-63
2022/03/01 10:20:07;;;;;;;37.03;20.55;;;;;;;;;;5096193;28;20036;-63
2022/03/01 10:22:34;;;;;;;39.45;20.98;;;;;;;;;;5096205;28;20031;-63
2022/03/01 10:25:05;;;;;;;37.30;21.70;;;;;;;;;;5096152;28;20070;-65
2022/03/01 10:27:31;;;;;;;43.63;25.65;;;;;;;;;;5096056;28;20036;-63
2022/03/01 10:29:57;;;;;;;56.53;30.45;;;;;;;;;;5095772;28;20032;-63
2022/03/01 10:32:24;;;;;;;52.55;28.75;;;;;;;;;;5096016;28;20350;-63
2022/03/01 10:35:00;;;;;;;56.65;31.02;;;;;;;;;;5095937;28;20028;-63
2022/03/01 10:37:31;;;;;;;54.72;28.27;;;;;;;;;;5095798;28;20016;-65
2022/03/01 10:40:18;;;;;;;56.00;29.65;;;;;;;;;;5095812;28;20052;-65
2022/03/01 10:42:44;;;;;;;58.53;29.30;;;;;;;;;;5077579;28;20074;-65
2022/03/01 10:45:11;;;;;;;61.22;32.55;;;;;;;;;;5092748;28;20043;-63
2022/03/01 10:47:38;;;;;;;66.45;32.72;;;;;;;;;;5095143;28;20095;-63
2022/03/01 10:50:06;;;;;;;62.97;32.65;;;;;;;;;;5095365;28;20031;-63
2022/03/01 10:52:37;;;;;;;59.13;31.65;;;;;;;;;;5095390;28;20071;-63
2022/03/01 10:55:04;;;;;;;59.72;33.38;;;;;;;;;;5095367;28;20024;-63
2022/03/01 10:57:30;;;;;;;61.80;32.45;;;;;;;;;;5095011;28;20111;-63
2022/03/01 10:59:57;;;;;;;57.67;31.95;;;;;;;;;;5076918;28;20035;-63
2022/03/01 11:02:23;;;;;;;58.25;32.42;;;;;;;;;;5095069;28;20104;-63
2022/03/01 11:04:49;;;;;;;56.78;33.40;;;;;;;;;;5095118;28;20115;-63
2022/03/01 11:07:16;;;;;;;57.78;32.58;;;;;;;;;;5076589;28;20034;-63
2022/03/01 11:09:44;;;;;;;60.33;31.02;;;;;;;;;;5094900;28;20085;-63
2022/03/01 11:12:11;;;;;;;54.90;30.77;;;;;;;;;;5094966;28;20028;-64
2022/03/01 11:14:37;;;;;;;58.03;30.27;;;;;;;;;;5073158;28;20218;-64
2022/03/01 11:17:18;;;;;;;60.10;33.03;;;;;;;;;;5074597;28;20104;-64
2022/03/01 11:19:51;;;;;;;99.35;52.63;;;;;;;;;;5067190;28;20072;-64
2022/03/01 11:22:23;;;;;;;73.28;40.88;;;;;;;;;;5052613;28;20032;-64
2022/03/01 11:24:50;;;;;;;72.50;40.15;;;;;;;;;;5053250;28;20017;-64
2022/03/01 11:27:20;;;;;;;62.03;34.05;;;;;;;;;;5054170;28;20064;-64
2022/03/01 11:29:47;;;;;;;62.20;33.78;;;;;;;;;;5054344;28;20031;-64
2022/03/01 11:32:14;;;;;;;57.80;32.75;;;;;;;;;;5054287;28;20035;-64
2022/03/01 11:34:40;;;;;;;65.13;34.58;;;;;;;;;;5054303;28;20449;-64
2022/03/01 11:37:12;;;;;;;66.70;35.97;;;;;;;;;;5054253;28;20021;-64
2022/03/01 11:39:40;;;;;;;66.25;35.92;;;;;;;;;;5054028;28;20028;-64
2022/03/01 11:42:14;;;;;;;66.90;36.38;;;;;;;;;;5052788;28;20032;-64
2022/03/01 11:44:41;;;;;;;72.00;37.35;;;;;;;;;;5054172;28;20021;-65
2022/03/01 11:47:09;;;;;;;90.88;48.15;;;;;;;;;;5052763;28;20029;-66
2022/03/01 11:49:36;;;;;;;73.65;38.72;;;;;;;;;;5054121;28;20527;-65
2022/03/01 11:52:03;;;;;;;67.22;35.05;;;;;;;;;;5050829;28;20447;-64
2022/03/01 11:54:31;;;;;;;62.92;34.67;;;;;;;;;;5053933;28;20028;-66
2022/03/01 11:56:58;;;;;;;64.38;37.35;;;;;;;;;;5052845;28;20438;-66
2022/03/01 11:59:24;;;;;;;64.82;36.05;;;;;;;;;;5053949;28;20469;-68
2022/03/01 12:01:52;;;;;;;75.50;39.50;;;;;;;;;;5072463;28;20033;-64
2022/03/01 12:04:22;;;;;;;80.30;41.83;;;;;;;;;;5073905;28;20469;-67
2022/03/01 12:06:54;;;;;;;85.30;41.90;;;;;;;;;;5072453;28;20074;-66
2022/03/01 12:09:22;;;;;;;77.57;40.17;;;;;;;;;;5073823;28;20093;-66
2022/03/01 12:11:48;;;;;;;70.55;39.92;;;;;;;;;;5073706;28;20039;-65
2022/03/01 12:14:18;;;;;;;66.75;37.50;;;;;;;;;;5083355;28;20047;-64
2022/03/01 12:16:45;;;;;;;72.03;37.30;;;;;;;;;;5114194;28;20016;-66
2022/03/01 12:19:15;;;;;;;67.72;37.85;;;;;;;;;;5114369;28;20444;-66
2022/03/01 12:21:48;;;;;;;69.28;38.05;;;;;;;;;;5114138;28;20027;-67
2022/03/01 12:24:14;;;;;;;74.22;37.85;;;;;;;;;;5095890;28;20034;-66
2022/03/01 12:26:45;;;;;;;73.90;41.05;;;;;;;;;;5114120;28;20084;-66
2022/03/01 12:29:12;;;;;;;249.20;139.63;;;;;;;;;;5113780;28;20027;-66
2022/03/01 12:31:39;;;;;;;75.72;40.72;;;;;;;;;;5113826;28;20073;-66
2022/03/01 12:34:07;;;;;;;59.83;34.75;;;;;;;;;;5094917;28;20024;-67
2022/03/01 12:36:40;;;;;;;56.47;31.88;;;;;;;;;;5095536;28;20088;-66
2022/03/01 12:39:13;;;;;;;66.65;34.10;;;;;;;;;;5113749;28;20027;-65
2022/03/01 12:41:41;;;;;;;59.13;35.30;;;;;;;;;;5113810;28;20092;-67
2022/03/01 12:44:08;;;;;;;60.53;32.67;;;;;;;;;;5113786;28;20480;-66
2022/03/01 12:46:35;;;;;;;60.13;33.03;;;;;;;;;;5113647;28;20031;-64
2022/03/01 12:49:02;;;;;;;55.10;32.25;;;;;;;;;;5113713;28;20020;-66
2022/03/01 12:51:29;;;;;;;57.72;34.75;;;;;;;;;;5113605;28;20027;-65
2022/03/01 12:53:57;;;;;;;59.47;33.88;;;9.40;97.20;;;;;;5095321;28;20115;-64
2022/03/01 12:56:34;;;;;;;61.53;34.50;;;9.70;95.20;;;;;;5113635;28;20111;-66
2022/03/01 12:59:13;;;;;;;54.25;33.35;;;9.90;93.60;;;;;;5095227;28;20019;-66
2022/03/01 13:01:40;;;;;;;54.55;30.92;;;;;;;;;;5113564;28;20160;-68
2022/03/01 13:04:09;;;;;;;54.13;31.38;;;;;;;;;;5113741;28;20023;-66
2022/03/01 13:06:36;;;;;;;53.50;33.05;;;;;;;;;;5113451;28;20022;-66
2022/03/01 13:09:03;;;;;;;51.35;29.38;;;;;;;;;;5113409;28;20027;-67
2022/03/01 13:11:29;;;;;;;49.00;27.02;;;;;;;;;;5113523;28;20030;-68
2022/03/01 13:13:56;;;;;;;53.40;32.20;;;;;;;;;;5113019;28;20437;-66
2022/03/01 13:16:25;;;;;;;47.35;29.02;;;9.50;95.40;;;;;;5113275;28;20030;-67
2022/03/01 13:18:53;;;;;;;46.05;29.13;;;9.70;93.70;;;;;;5113137;28;20030;-67
2022/03/01 13:21:53;;;;;;;47.90;29.95;;;10.70;91.40;;;;;;5113415;28;20032;-67
2022/03/01 13:24:23;;;;;;;49.45;28.30;;;11.30;88.40;;;;;;5010532;28;20046;-69
2022/03/01 13:26:50;;;;;;;41.30;26.08;;;;;;;;;;5010501;28;20615;-67
2022/03/01 13:29:18;;;;;;;48.60;29.15;;;;;;;;;;5010681;28;20036;-67
2022/03/01 13:31:45;;;;;;;38.20;25.58;;;;;;;;;;5010432;28;20030;-64
2022/03/01 13:34:11;;;;;;;47.65;28.60;;;;;;;;;;5010253;28;20034;-69
2022/03/01 13:36:39;;;;;;;45.13;28.52;;;;;;;;;;5010489;28;20037;-63
2022/03/01 13:39:07;;;;;;;41.72;27.48;;;;;;;;;;5010350;28;20034;-63
2022/03/01 13:41:34;;;;;;;43.75;28.25;;;;;;;;;;4993829;28;20447;-65
2022/03/01 13:44:23;;;;;;;45.28;27.83;;;;;;;;;;5011491;28;20026;-66
2022/03/01 13:47:14;;;;;;;46.67;29.55;;;;;;;;;;5014330;28;20060;-66
2022/03/01 13:49:41;;;;;;;49.10;29.40;;;;;;;;;;5007066;28;20037;-66
2022/03/01 13:52:07;;;;;;;46.47;28.58;;;;;;;;;;5014292;28;20021;-66
2022/03/01 13:54:33;;;;;;;43.15;26.85;;;;;;;;;;5014077;28;20030;-65
2022/03/01 13:57:00;;;;;;;43.63;27.23;;;;;;;;;;5014259;28;20030;-65
2022/03/01 13:59:26;;;;;;;46.25;28.05;;;;;;;;;;5029780;28;20044;-65
2022/03/01 14:01:52;;;;;;;46.25;28.63;;;;;;;;;;5116987;28;20063;-62
2022/03/01 14:04:22;;;;;;;46.47;27.83;;;;;;;;;;5116881;28;20452;-65
2022/03/01 14:06:49;;;;;;;43.08;27.63;;;;;;;;;;5116905;28;20023;-64
2022/03/01 14:09:15;;;;;;;43.38;24.98;;;;;;;;;;5116849;28;20024;-63
2022/03/01 14:11:41;;;;;;;44.13;28.42;;;;;;;;;;5116696;28;20493;-67
2022/03/01 14:14:15;;;;;;;37.15;25.40;;;;;;;;;;5116795;28;20050;-66
2022/03/01 14:16:43;;;;;;;41.20;25.25;;;;;;;;;;5098261;28;20468;-63